createdAt,value
2017-11-27T00:00:24.415Z,1015.08
2017-11-27T00:01:24.394Z,1015.05
2017-11-27T00:02:24.375Z,1015.02
2017-11-27T00:03:24.348Z,1015.01
2017-11-27T00:04:24.328Z,1015.04
2017-11-27T00:05:24.302Z,1015.02
2017-11-27T00:06:24.287Z,1015.03
2017-11-27T00:07:24.259Z,1015.02
2017-11-27T00:08:24.236Z,1014.99
2017-11-27T00:09:24.295Z,1014.98
2017-11-27T00:10:24.190Z,1015.01
2017-11-27T00:11:24.185Z,1014.93
2017-11-27T00:12:24.147Z,1014.91
2017-11-27T00:13:24.128Z,1014.89
2017-11-27T00:14:24.105Z,1014.90
2017-11-27T00:15:24.077Z,1014.89
2017-11-27T00:16:24.058Z,1014.90
2017-11-27T00:17:24.037Z,1014.91
2017-11-27T00:18:24.018Z,1014.86
2017-11-27T00:19:23.995Z,1014.89
2017-11-27T00:20:23.969Z,1014.90
2017-11-27T00:21:23.948Z,1014.90
2017-11-27T00:22:23.921Z,1014.85
2017-11-27T00:23:23.922Z,1014.83
2017-11-27T00:24:23.881Z,1014.85
2017-11-27T00:25:23.858Z,1014.81
2017-11-27T00:26:23.843Z,1014.79
2017-11-27T00:27:23.810Z,1014.79
2017-11-27T00:28:23.788Z,1014.74
2017-11-27T00:29:23.776Z,1014.84
2017-11-27T00:30:23.742Z,1014.85
2017-11-27T00:31:23.724Z,1014.88
2017-11-27T00:32:23.701Z,1014.91
2017-11-27T00:33:23.678Z,1014.90
2017-11-27T00:34:23.653Z,1014.89
2017-11-27T00:35:23.648Z,1014.87
2017-11-27T00:36:23.608Z,1014.91
2017-11-27T00:37:23.597Z,1014.89
2017-11-27T00:38:23.562Z,1014.92
2017-11-27T00:39:23.544Z,1014.93
2017-11-27T00:40:23.519Z,1014.95
2017-11-27T00:41:23.497Z,1014.92
2017-11-27T00:42:23.478Z,1014.88
2017-11-27T00:43:23.467Z,1014.88
2017-11-27T00:44:23.432Z,1014.86
2017-11-27T00:45:23.410Z,1014.85
2017-11-27T00:46:23.388Z,1014.84
2017-11-27T00:47:23.368Z,1014.81
2017-11-27T00:48:23.345Z,1014.81
2017-11-27T00:49:23.318Z,1014.78
2017-11-27T00:50:23.298Z,1014.74
2017-11-27T00:51:23.274Z,1014.74
2017-11-27T00:52:23.252Z,1014.69
2017-11-27T00:53:23.227Z,1014.67
2017-11-27T00:54:23.215Z,1014.63
2017-11-27T00:55:23.186Z,1014.73
2017-11-27T00:56:23.161Z,1014.71
2017-11-27T00:57:23.137Z,1014.66
2017-11-27T00:58:23.115Z,1014.64
2017-11-27T00:59:23.091Z,1014.66
2017-11-27T01:00:23.076Z,1014.65
2017-11-27T01:01:23.058Z,1014.61
2017-11-27T01:02:23.026Z,1014.58
2017-11-27T01:03:23.003Z,1014.59
2017-11-27T01:04:22.988Z,1014.58
2017-11-27T01:05:22.970Z,1014.53
2017-11-27T01:06:22.941Z,1014.63
2017-11-27T01:07:22.917Z,1014.61
2017-11-27T01:08:22.897Z,1014.58
2017-11-27T01:09:22.867Z,1014.54
2017-11-27T01:10:22.847Z,1014.55
2017-11-27T01:11:22.838Z,1014.63
2017-11-27T01:12:22.806Z,1014.62
2017-11-27T01:13:22.779Z,1014.66
2017-11-27T01:14:22.759Z,1014.63
2017-11-27T01:15:22.735Z,1014.64
2017-11-27T01:16:22.712Z,1014.62
2017-11-27T01:17:22.695Z,1014.64
2017-11-27T01:18:22.665Z,1014.63
2017-11-27T01:19:22.645Z,1014.63
2017-11-27T01:20:22.630Z,1014.67
2017-11-27T01:21:22.609Z,1014.68
2017-11-27T01:22:22.576Z,1014.64
2017-11-27T01:23:22.555Z,1014.68
2017-11-27T01:24:22.541Z,1014.69
2017-11-27T01:25:22.508Z,1014.70
2017-11-27T01:26:22.488Z,1014.66
2017-11-27T01:27:22.466Z,1014.63
2017-11-27T01:28:22.440Z,1014.61
2017-11-27T01:29:22.421Z,1014.62
2017-11-27T01:30:22.394Z,1014.61
2017-11-27T01:31:22.374Z,1014.61
2017-11-27T01:32:22.352Z,1014.61
2017-11-27T01:33:22.329Z,1014.61
2017-11-27T01:34:22.315Z,1014.60
2017-11-27T01:35:22.291Z,1014.61
2017-11-27T01:36:22.261Z,1014.60
2017-11-27T01:37:22.241Z,1014.62
2017-11-27T01:38:22.213Z,1014.62
2017-11-27T01:39:22.197Z,1014.63
2017-11-27T01:40:22.172Z,1014.54
2017-11-27T01:41:22.155Z,1014.60
2017-11-27T01:42:22.126Z,1014.60
2017-11-27T01:43:22.101Z,1014.60
2017-11-27T01:44:22.078Z,1014.63
2017-11-27T01:45:22.057Z,1014.62
2017-11-27T01:46:22.037Z,1014.69
2017-11-27T01:47:22.013Z,1014.70
2017-11-27T01:48:21.990Z,1014.72
2017-11-27T01:49:21.968Z,1014.77
2017-11-27T01:50:21.949Z,1014.73
2017-11-27T01:51:21.926Z,1014.71
2017-11-27T01:52:21.904Z,1014.73
2017-11-27T01:53:21.875Z,1014.68
2017-11-27T01:54:21.854Z,1014.66
2017-11-27T01:55:21.832Z,1014.60
2017-11-27T01:56:21.819Z,1014.55
2017-11-27T01:57:21.786Z,1014.57
2017-11-27T01:58:21.764Z,1014.60
2017-11-27T01:59:21.748Z,1014.63
2017-11-27T02:00:21.720Z,1014.60
2017-11-27T02:01:21.696Z,1014.53
2017-11-27T02:02:21.676Z,1014.59
2017-11-27T02:03:21.657Z,1014.59
2017-11-27T02:04:21.630Z,1014.59
2017-11-27T02:05:21.608Z,1014.56
2017-11-27T02:06:21.591Z,1014.56
2017-11-27T02:07:21.563Z,1014.51
2017-11-27T02:08:21.546Z,1014.52
2017-11-27T02:09:21.527Z,1014.50
2017-11-27T02:10:21.501Z,1014.50
2017-11-27T02:11:21.471Z,1014.54
2017-11-27T02:12:21.451Z,1014.52
2017-11-27T02:13:21.432Z,1014.50
2017-11-27T02:14:21.404Z,1014.49
2017-11-27T02:15:21.382Z,1014.52
2017-11-27T02:16:21.361Z,1014.49
2017-11-27T02:17:21.338Z,1014.45
2017-11-27T02:18:21.319Z,1014.43
2017-11-27T02:19:21.287Z,1014.45
2017-11-27T02:20:21.272Z,1014.45
2017-11-27T02:21:21.255Z,1014.45
2017-11-27T02:22:21.225Z,1014.43
2017-11-27T02:23:21.209Z,1014.46
2017-11-27T02:24:21.178Z,1014.43
2017-11-27T02:25:21.160Z,1014.44
2017-11-27T02:26:21.134Z,1014.42
2017-11-27T02:27:21.126Z,1014.40
2017-11-27T02:28:21.087Z,1014.39
2017-11-27T02:29:21.067Z,1014.39
2017-11-27T02:30:21.055Z,1014.38
2017-11-27T02:31:21.028Z,1014.37
2017-11-27T02:32:21.000Z,1014.33
2017-11-27T02:33:20.991Z,1014.34
2017-11-27T02:34:20.961Z,1014.31
2017-11-27T02:35:20.941Z,1014.29
2017-11-27T02:36:20.905Z,1014.28
2017-11-27T02:37:20.896Z,1014.18
2017-11-27T02:38:20.871Z,1014.22
2017-11-27T02:39:20.850Z,1014.19
2017-11-27T02:40:20.819Z,1014.21
2017-11-27T02:41:20.810Z,1014.24
2017-11-27T02:42:20.786Z,1014.23
2017-11-27T02:43:20.754Z,1014.24
2017-11-27T02:44:20.730Z,1014.23
2017-11-27T02:45:20.708Z,1014.27
2017-11-27T02:46:20.685Z,1014.24
2017-11-27T02:47:20.671Z,1014.22
2017-11-27T02:48:20.642Z,1014.21
2017-11-27T02:49:20.622Z,1014.14
2017-11-27T02:50:20.595Z,1014.09
2017-11-27T02:51:20.574Z,1014.11
2017-11-27T02:52:20.548Z,1014.08
2017-11-27T02:53:20.531Z,1014.02
2017-11-27T02:54:20.509Z,1014.05
2017-11-27T02:55:20.481Z,1014.02
2017-11-27T02:56:20.459Z,1014.10
2017-11-27T02:57:20.437Z,1014.14
2017-11-27T02:58:20.412Z,1014.09
2017-11-27T02:59:20.390Z,1014.13
2017-11-27T03:00:20.368Z,1014.09
2017-11-27T03:01:20.348Z,1014.09
2017-11-27T03:02:20.331Z,1014.13
2017-11-27T03:03:20.297Z,1014.10
2017-11-27T03:04:20.295Z,1014.02
2017-11-27T03:05:20.257Z,1014.00
2017-11-27T03:06:20.240Z,1013.92
2017-11-27T03:07:20.215Z,1013.93
2017-11-27T03:08:20.189Z,1013.89
2017-11-27T03:09:20.171Z,1013.87
2017-11-27T03:10:20.148Z,1013.90
2017-11-27T03:11:20.121Z,1013.84
2017-11-27T03:12:20.102Z,1013.79
2017-11-27T03:13:20.077Z,1013.86
2017-11-27T03:14:20.052Z,1013.84
2017-11-27T03:15:20.035Z,1013.81
2017-11-27T03:16:20.009Z,1013.76
2017-11-27T03:17:19.985Z,1013.76
2017-11-27T03:18:19.968Z,1013.77
2017-11-27T03:19:19.949Z,1013.75
2017-11-27T03:20:19.921Z,1013.75
2017-11-27T03:21:19.896Z,1013.72
2017-11-27T03:22:19.871Z,1013.74
2017-11-27T03:23:19.850Z,1013.74
2017-11-27T03:24:19.828Z,1013.68
2017-11-27T03:25:19.809Z,1013.68
2017-11-27T03:26:19.793Z,1013.65
2017-11-27T03:27:19.761Z,1013.63
2017-11-27T03:28:19.739Z,1013.63
2017-11-27T03:29:19.719Z,1013.66
2017-11-27T03:30:19.702Z,1013.65
2017-11-27T03:31:19.673Z,1013.59
2017-11-27T03:32:19.653Z,1013.59
2017-11-27T03:33:19.629Z,1013.63
2017-11-27T03:34:19.604Z,1013.61
2017-11-27T03:35:19.584Z,1013.61
2017-11-27T03:36:19.565Z,1013.55
2017-11-27T03:37:19.548Z,1013.57
2017-11-27T03:38:19.520Z,1013.58
2017-11-27T03:39:19.496Z,1013.59
2017-11-27T03:40:19.470Z,1013.57
2017-11-27T03:41:19.460Z,1013.56
2017-11-27T03:42:19.429Z,1013.56
2017-11-27T03:43:19.407Z,1013.52
2017-11-27T03:44:19.388Z,1013.53
2017-11-27T03:45:19.361Z,1013.48
2017-11-27T03:46:19.336Z,1013.51
2017-11-27T03:47:19.319Z,1013.47
2017-11-27T03:48:19.295Z,1013.45
2017-11-27T03:49:19.277Z,1013.42
2017-11-27T03:50:19.249Z,1013.41
2017-11-27T03:51:19.224Z,1013.38
2017-11-27T03:52:19.210Z,1013.41
2017-11-27T03:53:19.185Z,1013.37
2017-11-27T03:54:19.165Z,1013.38
2017-11-27T03:55:19.138Z,1013.40
2017-11-27T03:56:19.114Z,1013.33
2017-11-27T03:57:19.103Z,1013.31
2017-11-27T03:58:19.068Z,1013.33
2017-11-27T03:59:19.075Z,1013.33
2017-11-27T04:00:19.027Z,1013.33
2017-11-27T04:01:19.003Z,1013.31
2017-11-27T04:02:18.979Z,1013.20
2017-11-27T04:03:18.960Z,1013.22
2017-11-27T04:04:18.937Z,1013.27
2017-11-27T04:05:18.917Z,1013.33
2017-11-27T04:06:18.891Z,1013.39
2017-11-27T04:07:18.869Z,1013.25
2017-11-27T04:08:18.847Z,1013.22
2017-11-27T04:09:18.831Z,1013.19
2017-11-27T04:10:18.804Z,1013.11
2017-11-27T04:11:18.782Z,1013.11
2017-11-27T04:12:18.758Z,1013.20
2017-11-27T04:13:18.739Z,1013.16
2017-11-27T04:14:18.707Z,1013.16
2017-11-27T04:15:18.689Z,1013.16
2017-11-27T04:16:18.667Z,1013.18
2017-11-27T04:17:18.650Z,1013.18
2017-11-27T04:18:18.623Z,1013.21
2017-11-27T04:19:18.607Z,1013.20
2017-11-27T04:20:18.581Z,1013.10
2017-11-27T04:21:18.557Z,1013.09
2017-11-27T04:22:18.531Z,1013.04
2017-11-27T04:23:18.512Z,1012.98
2017-11-27T04:24:18.491Z,1013.06
2017-11-27T04:25:18.468Z,1012.98
2017-11-27T04:26:18.452Z,1013.01
2017-11-27T04:27:18.424Z,1012.96
2017-11-27T04:28:18.407Z,1012.96
2017-11-27T04:29:18.377Z,1012.90
2017-11-27T04:30:18.355Z,1012.95
2017-11-27T04:31:18.334Z,1012.88
2017-11-27T04:32:18.316Z,1012.86
2017-11-27T04:33:18.293Z,1012.91
2017-11-27T04:34:18.263Z,1012.85
2017-11-27T04:35:18.240Z,1012.87
2017-11-27T04:36:18.218Z,1012.87
2017-11-27T04:37:18.197Z,1012.89
2017-11-27T04:38:18.177Z,1012.86
2017-11-27T04:39:18.154Z,1012.78
2017-11-27T04:40:18.132Z,1012.78
2017-11-27T04:41:18.115Z,1012.79
2017-11-27T04:42:18.084Z,1012.78
2017-11-27T04:43:18.067Z,1012.76
2017-11-27T04:44:18.050Z,1012.75
2017-11-27T04:45:18.026Z,1012.72
2017-11-27T04:46:17.997Z,1012.72
2017-11-27T04:47:17.973Z,1012.71
2017-11-27T04:48:17.965Z,1012.70
2017-11-27T04:49:17.933Z,1012.64
2017-11-27T04:50:17.916Z,1012.67
2017-11-27T04:51:17.896Z,1012.72
2017-11-27T04:52:17.865Z,1012.70
2017-11-27T04:53:17.842Z,1012.65
2017-11-27T04:54:17.818Z,1012.62
2017-11-27T04:55:17.798Z,1012.64
2017-11-27T04:56:17.774Z,1012.61
2017-11-27T04:57:17.752Z,1012.61
2017-11-27T04:58:17.743Z,1012.59
2017-11-27T04:59:17.707Z,1012.62
2017-11-27T05:00:17.698Z,1012.59
2017-11-27T05:01:17.671Z,1012.65
2017-11-27T05:02:17.646Z,1012.64
2017-11-27T05:03:17.621Z,1012.64
2017-11-27T05:04:17.599Z,1012.64
2017-11-27T05:05:17.581Z,1012.62
2017-11-27T05:06:17.554Z,1012.57
2017-11-27T05:07:17.531Z,1012.56
2017-11-27T05:08:17.509Z,1012.50
2017-11-27T05:09:17.489Z,1012.49
2017-11-27T05:10:17.463Z,1012.47
2017-11-27T05:11:17.442Z,1012.47
2017-11-27T05:12:17.420Z,1012.52
2017-11-27T05:13:17.397Z,1012.51
2017-11-27T05:14:17.377Z,1012.41
2017-11-27T05:15:17.354Z,1012.41
2017-11-27T05:16:17.331Z,1012.39
2017-11-27T05:17:17.308Z,1012.35
2017-11-27T05:18:17.283Z,1012.39
2017-11-27T05:19:17.262Z,1012.36
2017-11-27T05:20:17.246Z,1012.34
2017-11-27T05:21:17.218Z,1012.30
2017-11-27T05:22:17.197Z,1012.32
2017-11-27T05:23:17.175Z,1012.30
2017-11-27T05:24:17.157Z,1012.28
2017-11-27T05:25:17.130Z,1012.24
2017-11-27T05:26:17.108Z,1012.24
2017-11-27T05:27:17.087Z,1012.23
2017-11-27T05:28:17.061Z,1012.15
2017-11-27T05:29:17.046Z,1012.22
2017-11-27T05:30:17.021Z,1012.21
2017-11-27T05:31:16.998Z,1012.21
2017-11-27T05:32:16.975Z,1012.17
2017-11-27T05:33:16.951Z,1012.14
2017-11-27T05:34:16.928Z,1012.13
2017-11-27T05:35:16.906Z,1012.08
2017-11-27T05:36:16.882Z,1012.07
2017-11-27T05:37:16.866Z,1012.05
2017-11-27T05:38:16.845Z,1012.04
2017-11-27T05:39:16.814Z,1012.03
2017-11-27T05:40:16.798Z,1012.02
2017-11-27T05:41:16.777Z,1012.00
2017-11-27T05:42:16.757Z,1011.95
2017-11-27T05:43:16.727Z,1012.00
2017-11-27T05:44:16.705Z,1011.94
2017-11-27T05:45:16.683Z,1011.87
2017-11-27T05:46:16.656Z,1011.80
2017-11-27T05:47:16.639Z,1011.83
2017-11-27T05:48:16.618Z,1011.84
2017-11-27T05:49:16.595Z,1011.88
2017-11-27T05:50:16.570Z,1011.82
2017-11-27T05:51:16.550Z,1011.85
2017-11-27T05:52:16.529Z,1011.84
2017-11-27T05:53:16.509Z,1011.83
2017-11-27T05:54:16.484Z,1011.79
2017-11-27T05:55:16.460Z,1011.82
2017-11-27T05:56:16.438Z,1011.77
2017-11-27T05:57:16.421Z,1011.82
2017-11-27T05:58:16.406Z,1011.80
2017-11-27T05:59:16.367Z,1011.74
2017-11-27T06:00:16.347Z,1011.76
2017-11-27T06:01:16.324Z,1011.71
2017-11-27T06:02:16.300Z,1011.75
2017-11-27T06:03:16.278Z,1011.70
2017-11-27T06:04:16.255Z,1011.64
2017-11-27T06:05:16.235Z,1011.64
2017-11-27T06:06:16.213Z,1011.69
2017-11-27T06:07:16.190Z,1011.64
2017-11-27T06:08:16.171Z,1011.59
2017-11-27T06:09:16.152Z,1011.58
2017-11-27T06:10:16.123Z,1011.59
2017-11-27T06:11:16.103Z,1011.60
2017-11-27T06:12:16.079Z,1011.56
2017-11-27T06:13:16.057Z,1011.46
2017-11-27T06:14:16.033Z,1011.43
2017-11-27T06:15:16.019Z,1011.40
2017-11-27T06:16:15.990Z,1011.39
2017-11-27T06:17:15.967Z,1011.38
2017-11-27T06:18:15.945Z,1011.37
2017-11-27T06:19:15.922Z,1011.37
2017-11-27T06:20:15.902Z,1011.32
2017-11-27T06:21:15.882Z,1011.31
2017-11-27T06:22:15.863Z,1011.31
2017-11-27T06:23:15.836Z,1011.28
2017-11-27T06:24:15.811Z,1011.27
2017-11-27T06:25:15.798Z,1011.18
2017-11-27T06:26:15.765Z,1011.22
2017-11-27T06:27:15.746Z,1011.07
2017-11-27T06:28:15.724Z,1011.11
2017-11-27T06:29:15.702Z,1011.22
2017-11-27T06:30:15.675Z,1011.07
2017-11-27T06:31:15.655Z,1011.06
2017-11-27T06:32:15.632Z,1011.08
2017-11-27T06:33:15.615Z,1011.06
2017-11-27T06:34:15.588Z,1011.04
2017-11-27T06:35:15.566Z,1010.99
2017-11-27T06:36:15.561Z,1010.98
2017-11-27T06:37:15.523Z,1010.97
2017-11-27T06:38:15.497Z,1010.95
2017-11-27T06:39:15.481Z,1010.91
2017-11-27T06:40:15.455Z,1010.91
2017-11-27T06:41:15.439Z,1010.88
2017-11-27T06:42:15.420Z,1010.88
2017-11-27T06:43:15.386Z,1010.88
2017-11-27T06:44:15.369Z,1010.86
2017-11-27T06:45:15.373Z,1010.85
2017-11-27T06:46:15.324Z,1010.82
2017-11-27T06:47:15.298Z,1010.84
2017-11-27T06:48:15.282Z,1010.77
2017-11-27T06:49:15.257Z,1010.77
2017-11-27T06:50:15.230Z,1010.77
2017-11-27T06:51:15.214Z,1010.72
2017-11-27T06:52:15.189Z,1010.74
2017-11-27T06:53:15.176Z,1010.67
2017-11-27T06:54:15.146Z,1010.65
2017-11-27T06:55:15.120Z,1010.62
2017-11-27T06:56:15.096Z,1010.65
2017-11-27T06:57:15.080Z,1010.57
2017-11-27T06:58:15.058Z,1010.57
2017-11-27T06:59:15.034Z,1010.52
2017-11-27T07:00:15.014Z,1010.52
2017-11-27T07:01:14.985Z,1010.58
2017-11-27T07:02:14.963Z,1010.51
2017-11-27T07:03:14.956Z,1010.49
2017-11-27T07:04:14.921Z,1010.46
2017-11-27T07:05:14.899Z,1010.40
2017-11-27T07:06:14.882Z,1010.45
2017-11-27T07:07:14.852Z,1010.35
2017-11-27T07:08:14.835Z,1010.27
2017-11-27T07:09:14.807Z,1010.37
2017-11-27T07:10:14.788Z,1010.40
2017-11-27T07:11:14.770Z,1010.36
2017-11-27T07:12:14.742Z,1010.23
2017-11-27T07:13:14.718Z,1010.26
2017-11-27T07:14:14.699Z,1010.22
2017-11-27T07:15:14.677Z,1010.24
2017-11-27T07:16:14.653Z,1010.19
2017-11-27T07:17:14.633Z,1010.23
2017-11-27T07:18:14.605Z,1010.20
2017-11-27T07:19:14.588Z,1010.24
2017-11-27T07:20:14.574Z,1010.20
2017-11-27T07:21:14.550Z,1010.17
2017-11-27T07:22:14.521Z,1010.17
2017-11-27T07:23:14.497Z,1010.14
2017-11-27T07:24:14.487Z,1010.08
2017-11-27T07:25:14.461Z,1010.06
2017-11-27T07:26:14.432Z,1010.02
2017-11-27T07:27:14.415Z,1009.98
2017-11-27T07:28:14.387Z,1010.00
2017-11-27T07:29:14.369Z,1009.98
2017-11-27T07:30:14.345Z,1009.95
2017-11-27T07:31:14.325Z,1010.02
2017-11-27T07:32:14.295Z,1010.01
2017-11-27T07:33:14.277Z,1009.98
2017-11-27T07:34:14.256Z,1009.99
2017-11-27T07:35:14.232Z,1010.02
2017-11-27T07:36:14.221Z,1010.04
2017-11-27T07:37:14.194Z,1009.97
2017-11-27T07:38:14.183Z,1009.98
2017-11-27T07:39:14.146Z,1009.95
2017-11-27T07:40:14.127Z,1009.96
2017-11-27T07:41:14.105Z,1009.99
2017-11-27T07:42:14.079Z,1009.96
2017-11-27T07:43:14.056Z,1009.97
2017-11-27T07:44:14.040Z,1009.96
2017-11-27T07:45:14.012Z,1009.86
2017-11-27T07:46:13.986Z,1009.88
2017-11-27T07:47:13.974Z,1009.87
2017-11-27T07:48:13.950Z,1009.82
2017-11-27T07:49:13.928Z,1009.80
2017-11-27T07:50:13.920Z,1009.84
2017-11-27T07:51:13.877Z,1009.73
2017-11-27T07:52:13.857Z,1009.77
2017-11-27T07:53:13.839Z,1009.72
2017-11-27T07:54:13.816Z,1009.77
2017-11-27T07:55:13.787Z,1009.68
2017-11-27T07:56:13.769Z,1009.71
2017-11-27T07:57:13.745Z,1009.68
2017-11-27T07:58:13.730Z,1009.65
2017-11-27T07:59:13.702Z,1009.64
2017-11-27T08:00:13.677Z,1009.62
2017-11-27T08:01:13.656Z,1009.57
2017-11-27T08:02:13.642Z,1009.56
2017-11-27T08:03:13.616Z,1009.60
2017-11-27T08:04:13.592Z,1009.56
2017-11-27T08:05:13.573Z,1009.51
2017-11-27T08:06:13.544Z,1009.49
2017-11-27T08:07:13.527Z,1009.48
2017-11-27T08:08:13.510Z,1009.49
2017-11-27T08:09:13.481Z,1009.44
2017-11-27T08:10:13.469Z,1009.37
2017-11-27T08:11:13.432Z,1009.33
2017-11-27T08:12:13.428Z,1009.32
2017-11-27T08:13:13.394Z,1009.30
2017-11-27T08:14:13.367Z,1009.26
2017-11-27T08:15:13.346Z,1009.28
2017-11-27T08:16:13.322Z,1009.25
2017-11-27T08:17:13.301Z,1009.25
2017-11-27T08:18:13.277Z,1009.22
2017-11-27T08:19:13.256Z,1009.19
2017-11-27T08:20:13.238Z,1009.18
2017-11-27T08:21:13.213Z,1009.13
2017-11-27T08:22:13.197Z,1009.13
2017-11-27T08:23:13.168Z,1009.12
2017-11-27T08:24:13.147Z,1009.10
2017-11-27T08:25:13.128Z,1009.06
2017-11-27T08:26:13.112Z,1009.03
2017-11-27T08:27:13.084Z,1009.03
2017-11-27T08:28:13.074Z,1009.04
2017-11-27T08:29:13.037Z,1009.10
2017-11-27T08:30:13.019Z,1009.06
2017-11-27T08:31:12.995Z,1008.99
2017-11-27T08:32:12.976Z,1008.99
2017-11-27T08:33:12.953Z,1008.95
2017-11-27T08:34:12.935Z,1008.97
2017-11-27T08:35:12.909Z,1008.89
2017-11-27T08:36:12.889Z,1008.89
2017-11-27T08:37:12.867Z,1008.88
2017-11-27T08:38:12.843Z,1008.83
2017-11-27T08:39:12.869Z,1008.88
2017-11-27T08:40:12.811Z,1008.85
2017-11-27T08:41:12.775Z,1008.86
2017-11-27T08:42:12.753Z,1008.89
2017-11-27T08:43:12.731Z,1008.90
2017-11-27T08:44:12.708Z,1008.83
2017-11-27T08:45:12.695Z,1008.82
2017-11-27T08:46:12.667Z,1008.80
2017-11-27T08:47:12.640Z,1008.72
2017-11-27T08:48:12.617Z,1008.67
2017-11-27T08:49:12.607Z,1008.76
2017-11-27T08:50:12.577Z,1008.71
2017-11-27T08:51:12.553Z,1008.60
2017-11-27T08:52:12.531Z,1008.62
2017-11-27T08:53:12.510Z,1008.60
2017-11-27T08:54:12.491Z,1008.53
2017-11-27T08:55:12.465Z,1008.47
2017-11-27T08:56:12.442Z,1008.43
2017-11-27T08:57:12.418Z,1008.54
2017-11-27T08:58:12.401Z,1008.55
2017-11-27T08:59:12.383Z,1008.49
2017-11-27T09:00:12.357Z,1008.43
2017-11-27T09:01:12.342Z,1008.34
2017-11-27T09:02:12.317Z,1008.33
2017-11-27T09:03:12.294Z,1008.28
2017-11-27T09:04:12.266Z,1008.27
2017-11-27T09:05:12.246Z,1008.27
2017-11-27T09:06:12.222Z,1008.27
2017-11-27T09:07:12.204Z,1008.32
2017-11-27T09:08:12.175Z,1008.29
2017-11-27T09:09:12.167Z,1008.28
2017-11-27T09:10:12.131Z,1008.23
2017-11-27T09:11:12.119Z,1008.24
2017-11-27T09:12:12.095Z,1008.18
2017-11-27T09:13:12.065Z,1008.24
2017-11-27T09:14:12.045Z,1008.13
2017-11-27T09:15:12.023Z,1008.18
2017-11-27T09:16:12.005Z,1008.11
2017-11-27T09:17:11.977Z,1008.14
2017-11-27T09:18:11.959Z,1008.05
2017-11-27T09:19:11.946Z,1008.05
2017-11-27T09:20:11.911Z,1008.07
2017-11-27T09:21:11.895Z,1008.05
2017-11-27T09:22:11.894Z,1008.02
2017-11-27T09:23:11.846Z,1008.00
2017-11-27T09:24:11.824Z,1007.97
2017-11-27T09:25:11.805Z,1007.96
2017-11-27T09:26:11.778Z,1007.92
2017-11-27T09:27:11.756Z,1007.90
2017-11-27T09:28:11.737Z,1007.86
2017-11-27T09:29:11.720Z,1007.80
2017-11-27T09:30:11.689Z,1007.83
2017-11-27T09:31:11.678Z,1007.76
2017-11-27T09:32:11.651Z,1007.78
2017-11-27T09:33:11.626Z,1007.73
2017-11-27T09:34:11.611Z,1007.76
2017-11-27T09:35:11.588Z,1007.79
2017-11-27T09:36:11.572Z,1007.66
2017-11-27T09:37:11.537Z,1007.70
2017-11-27T09:38:11.516Z,1007.71
2017-11-27T09:39:11.494Z,1007.68
2017-11-27T09:40:11.482Z,1007.69
2017-11-27T09:41:11.780Z,1007.64
2017-11-27T09:42:11.430Z,1007.63
2017-11-27T09:43:11.420Z,1007.56
2017-11-27T09:44:11.388Z,1007.56
2017-11-27T09:45:11.373Z,1007.60
2017-11-27T09:46:11.339Z,1007.55
2017-11-27T09:47:11.344Z,1007.51
2017-11-27T09:48:11.299Z,1007.48
2017-11-27T09:49:11.280Z,1007.45
2017-11-27T09:50:11.254Z,1007.48
2017-11-27T09:51:11.235Z,1007.44
2017-11-27T09:52:11.207Z,1007.46
2017-11-27T09:53:11.184Z,1007.44
2017-11-27T09:54:11.167Z,1007.35
2017-11-27T09:55:11.138Z,1007.38
2017-11-27T09:56:11.128Z,1007.33
2017-11-27T09:57:11.096Z,1007.33
2017-11-27T09:58:11.077Z,1007.37
2017-11-27T09:59:11.067Z,1007.37
2017-11-27T10:00:11.034Z,1007.31
2017-11-27T10:01:11.012Z,1007.27
2017-11-27T10:02:10.984Z,1007.32
2017-11-27T10:03:10.969Z,1007.28
2017-11-27T10:04:10.942Z,1007.21
2017-11-27T10:05:10.917Z,1007.20
2017-11-27T10:06:10.899Z,1007.25
2017-11-27T10:07:10.876Z,1007.09
2017-11-27T10:08:10.862Z,1007.10
2017-11-27T10:09:10.831Z,1007.11
2017-11-27T10:10:10.807Z,1007.01
2017-11-27T10:11:10.789Z,1007.01
2017-11-27T10:12:10.770Z,1007.05
2017-11-27T10:13:10.747Z,1006.99
2017-11-27T10:14:10.721Z,1006.98
2017-11-27T10:15:10.706Z,1006.93
2017-11-27T10:16:10.687Z,1006.89
2017-11-27T10:17:10.653Z,1006.83
2017-11-27T10:18:10.642Z,1006.88
2017-11-27T10:19:10.618Z,1006.88
2017-11-27T10:20:10.590Z,1006.80
2017-11-27T10:21:10.568Z,1006.78
2017-11-27T10:22:10.547Z,1006.76
2017-11-27T10:23:10.525Z,1006.70
2017-11-27T10:24:10.502Z,1006.74
2017-11-27T10:25:10.477Z,1006.67
2017-11-27T10:26:10.460Z,1006.66
2017-11-27T10:27:10.450Z,1006.67
2017-11-27T10:28:10.414Z,1006.61
2017-11-27T10:29:10.391Z,1006.66
2017-11-27T10:30:10.371Z,1006.62
2017-11-27T10:31:10.361Z,1006.58
2017-11-27T10:32:10.340Z,1006.55
2017-11-27T10:33:10.306Z,1006.53
2017-11-27T10:34:10.286Z,1006.40
2017-11-27T10:35:10.264Z,1006.37
2017-11-27T10:36:10.237Z,1006.38
2017-11-27T10:37:10.216Z,1006.32
2017-11-27T10:38:10.197Z,1006.24
2017-11-27T10:39:10.174Z,1006.19
2017-11-27T10:40:10.152Z,1006.17
2017-11-27T10:41:10.127Z,1006.01
2017-11-27T10:42:10.105Z,1006.01
2017-11-27T10:43:10.094Z,1006.02
2017-11-27T10:44:10.069Z,1005.96
2017-11-27T10:45:10.043Z,1005.95
2017-11-27T10:46:10.021Z,1005.90
2017-11-27T10:47:09.998Z,1005.87
2017-11-27T10:48:09.979Z,1005.82
2017-11-27T10:49:09.965Z,1005.74
2017-11-27T10:50:09.935Z,1005.77
2017-11-27T10:51:09.909Z,1005.66
2017-11-27T10:52:09.886Z,1005.66
2017-11-27T10:53:09.864Z,1005.67
2017-11-27T10:54:09.855Z,1005.50
2017-11-27T10:55:09.829Z,1005.47
2017-11-27T10:56:09.803Z,1005.32
2017-11-27T10:57:09.784Z,1005.40
2017-11-27T10:58:09.757Z,1005.37
2017-11-27T10:59:09.738Z,1005.44
2017-11-27T11:00:09.721Z,1005.28
2017-11-27T11:01:09.694Z,1005.19
2017-11-27T11:02:09.672Z,1005.17
2017-11-27T11:03:09.645Z,1005.10
2017-11-27T11:04:09.646Z,1005.01
2017-11-27T11:05:09.608Z,1004.92
2017-11-27T11:06:09.583Z,1005.00
2017-11-27T11:07:09.571Z,1004.93
2017-11-27T11:08:09.537Z,1004.97
2017-11-27T11:09:09.518Z,1004.95
2017-11-27T11:10:09.497Z,1004.88
2017-11-27T11:11:09.471Z,1004.83
2017-11-27T11:12:09.456Z,1004.96
2017-11-27T11:13:09.431Z,1004.85
2017-11-27T11:14:09.408Z,1004.85
2017-11-27T11:15:09.386Z,1004.95
2017-11-27T11:16:09.368Z,1004.97
2017-11-27T11:17:09.345Z,1004.78
2017-11-27T11:18:09.322Z,1004.79
2017-11-27T11:19:09.298Z,1004.84
2017-11-27T11:20:09.274Z,1004.70
2017-11-27T11:21:09.258Z,1004.66
2017-11-27T11:22:09.235Z,1004.76
2017-11-27T11:23:09.213Z,1004.73
2017-11-27T11:24:09.194Z,1004.74
2017-11-27T11:25:09.180Z,1004.71
2017-11-27T11:26:09.150Z,1004.72
2017-11-27T11:27:09.127Z,1004.70
2017-11-27T11:28:09.112Z,1004.65
2017-11-27T11:29:09.089Z,1004.63
2017-11-27T11:30:09.074Z,1004.60
2017-11-27T11:31:09.040Z,1004.66
2017-11-27T11:32:09.018Z,1004.62
2017-11-27T11:33:08.999Z,1004.67
2017-11-27T11:34:08.977Z,1004.70
2017-11-27T11:35:08.953Z,1004.60
2017-11-27T11:36:08.941Z,1004.57
2017-11-27T11:37:08.909Z,1004.53
2017-11-27T11:38:08.887Z,1004.45
2017-11-27T11:39:08.865Z,1004.50
2017-11-27T11:40:08.846Z,1004.52
2017-11-27T11:41:08.822Z,1004.43
2017-11-27T11:42:08.810Z,1004.46
2017-11-27T11:43:08.789Z,1004.43
2017-11-27T11:44:08.758Z,1004.30
2017-11-27T11:45:08.736Z,1004.36
2017-11-27T11:46:08.711Z,1004.28
2017-11-27T11:47:08.694Z,1004.29
2017-11-27T11:48:08.669Z,1004.33
2017-11-27T11:49:08.656Z,1004.26
2017-11-27T11:50:08.627Z,1004.29
2017-11-27T11:51:08.608Z,1004.34
2017-11-27T11:52:08.584Z,1004.32
2017-11-27T11:53:08.569Z,1004.18
2017-11-27T11:54:08.547Z,1004.19
2017-11-27T11:55:08.526Z,1004.20
2017-11-27T11:56:08.499Z,1004.19
2017-11-27T11:57:08.484Z,1004.23
2017-11-27T11:58:08.453Z,1004.25
2017-11-27T11:59:08.435Z,1004.17
2017-11-27T12:00:08.415Z,1004.22
2017-11-27T12:01:08.394Z,1004.11
2017-11-27T12:02:08.370Z,1004.17
2017-11-27T12:03:08.346Z,1004.16
2017-11-27T12:04:08.326Z,1004.10
2017-11-27T12:05:08.302Z,1004.08